KAQP

Appleton Municipal Airport

Appleton, Minnesota, USA
METAR KAQP 241213Z AUTO 00000KT 7SM OVC001 M21/M24 A3014 RMK AO2
Observed Flight Rules
Feb-24 @ 12:13 UTC (11 minutes ago) Instrument Flight Rules
Wind Visibility Clouds
Calm 7 miles
  • Overcast at 100' AGL
Temperatures Readings
Current -21°C / -6°F
Dewpoint -24°C / -11°F
Humidity 77%
Altimeter 30.14" Hg
Pressure 1021 hPa
Elevation 311
METAR KAQP 241213Z AUTO 00000KT 7SM OVC001 M21/M24 A3014 RMK AO2
Observed Flight Rules
Feb-24 @ 12:13 UTC
(11 minutes ago)
LIFR
Wind Visibility
Calm 7 miles
Clouds
  • Overcast at 100' AGL
Temperature Dewpoint
-21°C / -6°F -24°C / -11°F
Humidity Altimeter Pressure
77% 30.14" Hg 1021 hPa